createdAt,value
2023-02-22T00:00:14.614Z,0.00
2023-02-22T00:00:47.790Z,0.00
2023-02-22T00:01:09.063Z,0.00
2023-02-22T00:01:31.379Z,0.00
2023-02-22T00:02:06.383Z,0.00
2023-02-22T00:02:38.246Z,0.00
2023-02-22T00:03:10.473Z,0.00
2023-02-22T00:03:40.809Z,0.00
2023-02-22T00:04:14.350Z,0.00
2023-02-22T00:04:46.823Z,0.00
2023-02-22T00:05:11.716Z,0.00
2023-02-22T00:05:32.100Z,0.00
2023-02-22T00:06:06.248Z,0.00
2023-02-22T00:06:39.866Z,0.00
2023-02-22T00:07:12.718Z,0.00
2023-02-22T00:07:40.906Z,0.00
2023-02-22T00:08:14.708Z,0.00
2023-02-22T00:08:46.617Z,0.00
2023-02-22T00:09:09.721Z,0.00
2023-02-22T00:09:31.997Z,0.00
2023-02-22T00:10:06.316Z,0.00
2023-02-22T00:10:38.470Z,0.00
2023-02-22T00:11:10.463Z,0.00
2023-02-22T00:11:40.823Z,0.00
2023-02-22T00:12:14.290Z,0.00
2023-02-22T00:12:46.430Z,0.00
2023-02-22T00:13:09.155Z,0.00
2023-02-22T00:13:31.813Z,0.00
2023-02-22T00:14:06.447Z,0.00
2023-02-22T00:14:38.339Z,0.00
2023-02-22T00:15:10.439Z,0.00
2023-02-22T00:15:40.685Z,0.00
2023-02-22T00:16:15.844Z,0.00
2023-02-22T00:16:46.275Z,0.00
2023-02-22T00:17:10.135Z,0.00
2023-02-22T00:17:32.573Z,0.00
2023-02-22T00:18:06.594Z,0.00
2023-02-22T00:18:38.726Z,0.00
2023-02-22T00:19:10.237Z,0.00
2023-02-22T00:19:40.876Z,0.00
2023-02-22T00:20:14.632Z,0.00
2023-02-22T00:20:48.338Z,0.00
2023-02-22T00:21:09.174Z,0.00
2023-02-22T00:21:31.469Z,0.00
2023-02-22T00:22:06.565Z,0.00
2023-02-22T00:22:38.267Z,0.00
2023-02-22T00:23:10.314Z,0.00
2023-02-22T00:23:40.758Z,0.00
2023-02-22T00:24:14.291Z,0.00
2023-02-22T00:24:46.305Z,0.00
2023-02-22T00:25:08.966Z,0.00
2023-02-22T00:25:31.261Z,0.00
2023-02-22T00:26:06.467Z,0.00
2023-02-22T00:26:38.364Z,0.00
2023-02-22T00:27:10.726Z,0.00
2023-02-22T00:27:40.681Z,0.00
2023-02-22T00:28:14.328Z,0.00
2023-02-22T00:28:46.569Z,0.00
2023-02-22T00:29:09.258Z,0.00
2023-02-22T00:29:31.737Z,0.00
2023-02-22T00:30:06.624Z,0.00
2023-02-22T00:30:38.252Z,0.00
2023-02-22T00:31:10.350Z,0.00
2023-02-22T00:31:40.765Z,0.00
2023-02-22T00:32:14.334Z,0.00
2023-02-22T00:32:46.438Z,0.00
2023-02-22T00:33:08.983Z,0.00
2023-02-22T00:33:31.470Z,0.00
2023-02-22T00:34:06.706Z,0.00
2023-02-22T00:34:38.997Z,0.00
2023-02-22T00:35:11.708Z,0.00
2023-02-22T00:35:40.830Z,0.00
2023-02-22T00:36:14.292Z,0.00
2023-02-22T00:36:46.391Z,0.00
2023-02-22T00:37:09.069Z,0.00
2023-02-22T00:37:31.554Z,0.00
2023-02-22T00:38:06.506Z,0.00
2023-02-22T00:38:38.329Z,0.00
2023-02-22T00:39:10.411Z,0.00
2023-02-22T00:39:40.914Z,0.00
2023-02-22T00:40:15.471Z,0.00
2023-02-22T00:40:46.793Z,0.00
2023-02-22T00:41:09.480Z,0.00
2023-02-22T00:41:31.716Z,0.00
2023-02-22T00:42:06.492Z,0.00
2023-02-22T00:42:38.277Z,0.00
2023-02-22T00:43:10.337Z,0.00
2023-02-22T00:43:40.933Z,0.00
2023-02-22T00:44:15.133Z,0.00
2023-02-22T00:44:46.602Z,0.00
2023-02-22T00:45:09.456Z,0.00
2023-02-22T00:45:32.662Z,0.00
2023-02-22T00:46:06.427Z,0.00
2023-02-22T00:46:38.692Z,0.00
2023-02-22T00:47:10.504Z,0.00
2023-02-22T00:47:41.546Z,0.00
2023-02-22T00:48:14.491Z,0.00
2023-02-22T00:48:46.615Z,0.00
2023-02-22T00:49:09.561Z,0.00
2023-02-22T00:49:31.837Z,0.00
2023-02-22T00:50:06.475Z,0.00
2023-02-22T00:50:39.676Z,0.00
2023-02-22T00:51:11.336Z,0.00
2023-02-22T00:51:40.917Z,0.00
2023-02-22T00:52:14.469Z,0.00
2023-02-22T00:52:46.697Z,0.00
2023-02-22T00:53:09.274Z,0.00
2023-02-22T00:53:32.101Z,0.00
2023-02-22T00:54:06.665Z,0.00
2023-02-22T00:54:38.612Z,0.00
2023-02-22T00:55:10.465Z,0.00
2023-02-22T00:55:41.519Z,0.00
2023-02-22T00:56:14.187Z,0.00
2023-02-22T00:56:48.169Z,0.00
2023-02-22T00:57:10.869Z,0.00
2023-02-22T00:57:33.273Z,0.00
2023-02-22T00:58:06.888Z,0.00
2023-02-22T00:58:38.375Z,0.00
2023-02-22T00:59:11.130Z,0.00
2023-02-22T00:59:41.943Z,0.00
2023-02-22T01:00:15.452Z,0.00
2023-02-22T01:00:47.902Z,0.00
2023-02-22T01:01:09.189Z,0.00
2023-02-22T01:01:31.974Z,0.00
2023-02-22T01:02:06.576Z,0.00
2023-02-22T01:02:39.208Z,0.00
2023-02-22T01:03:10.402Z,0.00
2023-02-22T01:03:42.637Z,0.00
2023-02-22T01:04:14.444Z,0.00
2023-02-22T01:04:46.360Z,0.00
2023-02-22T01:05:12.506Z,0.00
2023-02-22T01:05:31.306Z,0.00
2023-02-22T01:06:06.522Z,0.00
2023-02-22T01:06:38.332Z,0.00
2023-02-22T01:07:14.131Z,0.00
2023-02-22T01:07:42.995Z,0.00
2023-02-22T01:08:14.478Z,0.00
2023-02-22T01:08:46.565Z,0.00
2023-02-22T01:09:09.131Z,0.00
2023-02-22T01:09:33.167Z,0.00
2023-02-22T01:10:06.485Z,0.00
2023-02-22T01:10:39.382Z,0.00
2023-02-22T01:11:10.650Z,0.00
2023-02-22T01:11:41.476Z,0.00
2023-02-22T01:12:14.306Z,0.00
2023-02-22T01:12:46.370Z,0.00
2023-02-22T01:13:09.479Z,0.00
2023-02-22T01:13:31.317Z,0.00
2023-02-22T01:14:06.308Z,0.00
2023-02-22T01:14:38.479Z,0.00
2023-02-22T01:15:11.065Z,0.00
2023-02-22T01:15:41.189Z,0.00
2023-02-22T01:16:16.450Z,0.00
2023-02-22T01:16:46.953Z,0.00
2023-02-22T01:17:09.087Z,0.00
2023-02-22T01:17:31.798Z,0.00
2023-02-22T01:18:07.095Z,0.00
2023-02-22T01:18:41.371Z,0.00
2023-02-22T01:19:04.163Z,0.00
2023-02-22T01:19:40.888Z,0.00
2023-02-22T01:20:14.253Z,0.00
2023-02-22T01:20:46.426Z,0.00
2023-02-22T01:21:09.238Z,0.00
2023-02-22T01:21:31.738Z,0.00
2023-02-22T01:22:06.372Z,0.00
2023-02-22T01:22:38.253Z,0.00
2023-02-22T01:23:10.683Z,0.00
2023-02-22T01:23:40.891Z,0.00
2023-02-22T01:24:14.310Z,0.00
2023-02-22T01:24:46.279Z,0.00
2023-02-22T01:25:09.090Z,0.00
2023-02-22T01:25:31.563Z,0.00
2023-02-22T01:26:06.316Z,0.00
2023-02-22T01:26:38.328Z,0.00
2023-02-22T01:27:10.225Z,0.00
2023-02-22T01:27:40.692Z,0.00
2023-02-22T01:28:14.122Z,0.00
2023-02-22T01:28:46.423Z,0.00
2023-02-22T01:29:10.061Z,0.00
2023-02-22T01:29:32.414Z,0.00
2023-02-22T01:30:06.708Z,0.00
2023-02-22T01:30:38.476Z,0.00
2023-02-22T01:31:10.369Z,0.00
2023-02-22T01:31:40.736Z,0.00
2023-02-22T01:32:14.359Z,0.00
2023-02-22T01:32:46.464Z,0.00
2023-02-22T01:33:11.334Z,0.00
2023-02-22T01:33:31.259Z,0.00
2023-02-22T01:34:06.179Z,0.00
2023-02-22T01:34:38.301Z,0.00
2023-02-22T01:35:10.386Z,0.00
2023-02-22T01:35:40.707Z,0.00
2023-02-22T01:36:14.188Z,0.00
2023-02-22T01:36:46.185Z,0.00
2023-02-22T01:37:08.884Z,0.00
2023-02-22T01:37:31.412Z,0.00
2023-02-22T01:38:06.308Z,0.00
2023-02-22T01:38:38.154Z,0.00
2023-02-22T01:39:10.325Z,0.00
2023-02-22T01:39:42.146Z,0.00
2023-02-22T01:40:15.438Z,0.00
2023-02-22T01:40:46.577Z,0.00
2023-02-22T01:41:10.379Z,0.00
2023-02-22T01:41:31.717Z,0.00
2023-02-22T01:42:06.342Z,0.00
2023-02-22T01:42:38.832Z,0.00
2023-02-22T01:43:10.556Z,0.00
2023-02-22T01:43:40.815Z,0.00
2023-02-22T01:44:14.743Z,0.00
2023-02-22T01:44:46.252Z,0.00
2023-02-22T01:45:10.097Z,0.00
2023-02-22T01:45:32.472Z,0.00
2023-02-22T01:46:07.370Z,0.00
2023-02-22T01:46:39.831Z,0.00
2023-02-22T01:47:10.328Z,0.00
2023-02-22T01:47:40.752Z,0.00
2023-02-22T01:48:14.661Z,0.00
2023-02-22T01:48:46.170Z,0.00
2023-02-22T01:49:08.790Z,0.00
2023-02-22T01:49:31.191Z,0.00
2023-02-22T01:50:07.255Z,0.00
2023-02-22T01:50:38.387Z,0.00
2023-02-22T01:51:10.524Z,0.00
2023-02-22T01:51:41.011Z,0.00
2023-02-22T01:52:14.463Z,0.00
2023-02-22T01:52:47.772Z,0.00
2023-02-22T01:53:09.175Z,0.00
2023-02-22T01:53:31.578Z,0.00
2023-02-22T01:54:07.914Z,0.00
2023-02-22T01:54:38.240Z,0.00
2023-02-22T01:55:10.446Z,0.00
2023-02-22T01:55:42.198Z,0.00
2023-02-22T01:56:14.190Z,0.00
2023-02-22T01:56:46.122Z,0.00
2023-02-22T01:57:09.096Z,0.00
2023-02-22T01:57:31.241Z,0.00
2023-02-22T01:58:08.769Z,0.00
2023-02-22T01:58:32.919Z,0.00
2023-02-22T01:59:11.080Z,0.00
2023-02-22T01:59:41.710Z,0.00
2023-02-22T02:00:15.118Z,0.00
2023-02-22T02:00:48.106Z,0.00
2023-02-22T02:01:10.645Z,0.00
2023-02-22T02:01:35.086Z,0.00
2023-02-22T02:02:06.673Z,0.00
2023-02-22T02:02:39.499Z,0.00
2023-02-22T02:03:10.345Z,0.00
2023-02-22T02:03:43.396Z,0.00
2023-02-22T02:04:14.798Z,0.00
2023-02-22T02:04:48.607Z,0.00
2023-02-22T02:05:11.697Z,0.00
2023-02-22T02:05:34.323Z,0.00
2023-02-22T02:06:07.026Z,0.00
2023-02-22T02:06:39.323Z,0.00
2023-02-22T02:07:20.113Z,0.00
2023-02-22T02:07:37.248Z,0.00
2023-02-22T02:08:14.501Z,0.00
2023-02-22T02:08:46.159Z,0.00
2023-02-22T02:09:10.458Z,0.00
2023-02-22T02:09:31.260Z,0.00
2023-02-22T02:10:06.339Z,0.00
2023-02-22T02:10:38.559Z,0.00
2023-02-22T02:11:10.865Z,0.00
2023-02-22T02:11:41.365Z,0.00
2023-02-22T02:12:14.419Z,0.00
2023-02-22T02:12:46.773Z,0.00
2023-02-22T02:13:11.144Z,0.00
2023-02-22T02:13:32.569Z,0.00
2023-02-22T02:14:06.145Z,0.00
2023-02-22T02:14:38.327Z,0.00
2023-02-22T02:15:11.377Z,0.00
2023-02-22T02:15:40.705Z,0.00
2023-02-22T02:16:14.472Z,0.00
2023-02-22T02:16:46.357Z,0.00
2023-02-22T02:17:11.750Z,0.00
2023-02-22T02:17:31.635Z,0.00
2023-02-22T02:18:06.542Z,0.00
2023-02-22T02:18:38.204Z,0.00
2023-02-22T02:19:11.950Z,0.00
2023-02-22T02:19:41.300Z,0.00
2023-02-22T02:20:14.271Z,0.00
2023-02-22T02:20:46.286Z,0.00
2023-02-22T02:21:09.447Z,0.00
2023-02-22T02:21:31.834Z,0.00
2023-02-22T02:22:06.367Z,0.00
2023-02-22T02:22:38.506Z,0.00
2023-02-22T02:23:13.257Z,0.00
2023-02-22T02:23:40.716Z,0.00
2023-02-22T02:24:14.707Z,0.00
2023-02-22T02:24:46.154Z,0.00
2023-02-22T02:25:09.242Z,0.00
2023-02-22T02:25:31.794Z,0.00
2023-02-22T02:26:06.335Z,0.00
2023-02-22T02:26:38.190Z,0.00
2023-02-22T02:27:10.283Z,0.00
2023-02-22T02:27:40.913Z,0.00
2023-02-22T02:28:14.374Z,0.00
2023-02-22T02:28:46.216Z,0.00
2023-02-22T02:29:09.397Z,0.00
2023-02-22T02:29:31.777Z,0.00
2023-02-22T02:30:06.770Z,0.00
2023-02-22T02:30:38.382Z,0.00
2023-02-22T02:31:10.164Z,0.00
2023-02-22T02:31:40.997Z,0.00
2023-02-22T02:32:17.981Z,0.00
2023-02-22T02:32:46.402Z,0.00
2023-02-22T02:33:10.281Z,0.00
2023-02-22T02:33:32.447Z,0.00
2023-02-22T02:34:06.318Z,0.00
2023-02-22T02:34:38.788Z,0.00
2023-02-22T02:35:10.521Z,0.00
2023-02-22T02:35:40.916Z,0.00
2023-02-22T02:36:14.964Z,0.00
2023-02-22T02:36:46.582Z,0.00
2023-02-22T02:37:09.475Z,0.00
2023-02-22T02:37:31.848Z,0.00
2023-02-22T02:38:06.187Z,0.00
2023-02-22T02:38:38.318Z,0.00
2023-02-22T02:39:10.296Z,0.00
2023-02-22T02:39:40.690Z,0.00
2023-02-22T02:40:15.584Z,0.00
2023-02-22T02:40:48.037Z,0.00
2023-02-22T02:41:09.299Z,0.00
2023-02-22T02:41:31.546Z,0.00
2023-02-22T02:42:06.230Z,0.00
2023-02-22T02:42:38.590Z,0.00
2023-02-22T02:43:10.467Z,0.00
2023-02-22T02:43:40.846Z,0.00
2023-02-22T02:44:16.533Z,0.00
2023-02-22T02:44:46.180Z,0.00
2023-02-22T02:45:09.057Z,0.00
2023-02-22T02:45:31.338Z,0.00
2023-02-22T02:46:06.149Z,0.00
2023-02-22T02:46:38.373Z,0.00
2023-02-22T02:47:10.248Z,0.00
2023-02-22T02:47:47.751Z,0.00
2023-02-22T02:48:14.194Z,0.00
2023-02-22T02:48:46.294Z,0.00
2023-02-22T02:49:08.972Z,0.00
2023-02-22T02:49:31.261Z,0.00
2023-02-22T02:50:06.483Z,0.00
2023-02-22T02:50:38.499Z,0.00
2023-02-22T02:51:10.340Z,0.00
2023-02-22T02:51:41.171Z,0.00
2023-02-22T02:52:14.309Z,0.00
2023-02-22T02:52:46.319Z,0.00
2023-02-22T02:53:09.056Z,0.00
2023-02-22T02:53:31.924Z,0.00
2023-02-22T02:54:06.447Z,0.00
2023-02-22T02:54:32.439Z,0.00
2023-02-22T02:55:10.887Z,0.00
2023-02-22T02:55:41.745Z,0.00
2023-02-22T02:56:14.277Z,0.00
2023-02-22T02:56:46.452Z,0.00
2023-02-22T02:57:09.240Z,0.00
2023-02-22T02:57:33.074Z,0.00
2023-02-22T02:58:10.466Z,0.00
2023-02-22T02:58:39.356Z,0.00
2023-02-22T02:59:12.481Z,0.00
2023-02-22T02:59:42.280Z,0.00
2023-02-22T03:00:19.507Z,0.00
2023-02-22T03:00:40.113Z,0.00
2023-02-22T03:01:12.429Z,0.00
2023-02-22T03:01:53.448Z,0.00
2023-02-22T03:02:13.641Z,0.00
2023-02-22T03:02:36.475Z,0.00
2023-02-22T03:03:11.030Z,0.00
2023-02-22T03:03:42.082Z,0.00
2023-02-22T03:04:14.435Z,0.00
2023-02-22T03:04:46.301Z,0.00
2023-02-22T03:05:14.603Z,0.00
2023-02-22T03:05:33.022Z,0.00
2023-02-22T03:06:09.826Z,0.00
2023-02-22T03:06:32.260Z,0.00
2023-02-22T03:07:10.778Z,0.00
2023-02-22T03:07:40.751Z,0.00
2023-02-22T03:08:17.792Z,0.00
2023-02-22T03:08:46.298Z,0.00
2023-02-22T03:09:09.230Z,0.00
2023-02-22T03:09:32.113Z,0.00
2023-02-22T03:10:06.181Z,0.00
2023-02-22T03:10:38.111Z,0.00
2023-02-22T03:11:10.682Z,0.00
2023-02-22T03:11:40.926Z,0.00
2023-02-22T03:12:14.153Z,0.00
2023-02-22T03:12:48.736Z,0.00
2023-02-22T03:13:09.507Z,0.00
2023-02-22T03:13:32.054Z,0.00
2023-02-22T03:14:06.260Z,0.00
2023-02-22T03:14:41.904Z,0.00
2023-02-22T03:15:10.455Z,0.00
2023-02-22T03:15:40.742Z,0.00
2023-02-22T03:16:14.283Z,0.00
2023-02-22T03:16:47.946Z,0.00
2023-02-22T03:17:09.364Z,0.00
2023-02-22T03:17:31.641Z,0.00
2023-02-22T03:18:06.766Z,0.00
2023-02-22T03:18:38.545Z,0.00
2023-02-22T03:19:10.224Z,0.00
2023-02-22T03:19:40.710Z,0.00
2023-02-22T03:20:14.495Z,0.00
2023-02-22T03:20:46.328Z,0.00
2023-02-22T03:21:09.033Z,0.00
2023-02-22T03:21:31.378Z,0.00
2023-02-22T03:22:06.462Z,0.00
2023-02-22T03:22:38.514Z,0.00
2023-02-22T03:23:10.405Z,0.00
2023-02-22T03:23:40.709Z,0.00
2023-02-22T03:24:14.299Z,0.00
2023-02-22T03:24:46.246Z,0.00
2023-02-22T03:25:09.807Z,0.00
2023-02-22T03:25:32.140Z,0.00
2023-02-22T03:26:06.600Z,0.00
2023-02-22T03:26:38.141Z,0.00
2023-02-22T03:27:10.295Z,0.00
2023-02-22T03:27:40.797Z,0.00
2023-02-22T03:28:14.289Z,0.00
2023-02-22T03:28:46.199Z,0.00
2023-02-22T03:29:08.807Z,0.00
2023-02-22T03:29:31.148Z,0.00
2023-02-22T03:30:07.012Z,0.00
2023-02-22T03:30:38.188Z,0.00
2023-02-22T03:31:10.979Z,0.00
2023-02-22T03:31:36.164Z,0.00
2023-02-22T03:32:15.659Z,0.00
2023-02-22T03:32:46.731Z,0.00
2023-02-22T03:33:09.522Z,0.00
2023-02-22T03:33:32.710Z,0.00
2023-02-22T03:34:06.526Z,0.00
2023-02-22T03:34:38.365Z,0.00
2023-02-22T03:35:11.114Z,0.00
2023-02-22T03:35:40.829Z,0.00
2023-02-22T03:36:14.609Z,0.00
2023-02-22T03:36:46.455Z,0.00
2023-02-22T03:37:09.186Z,0.00
2023-02-22T03:37:31.713Z,0.00
2023-02-22T03:38:06.961Z,0.00
2023-02-22T03:38:39.455Z,0.00
2023-02-22T03:39:10.525Z,0.00
2023-02-22T03:39:40.950Z,0.00
2023-02-22T03:40:17.266Z,0.00
2023-02-22T03:40:48.751Z,0.00
2023-02-22T03:41:09.505Z,0.00
2023-02-22T03:41:31.870Z,0.00
2023-02-22T03:42:08.150Z,0.00
2023-02-22T03:42:39.769Z,0.00
2023-02-22T03:43:10.698Z,0.00
2023-02-22T03:43:40.782Z,0.00
2023-02-22T03:44:14.547Z,0.00
2023-02-22T03:44:46.198Z,0.00
2023-02-22T03:45:09.047Z,0.00
2023-02-22T03:45:31.610Z,0.00
2023-02-22T03:46:08.517Z,0.00
2023-02-22T03:46:39.924Z,0.00
2023-02-22T03:47:10.649Z,0.00
2023-02-22T03:47:41.473Z,0.00
2023-02-22T03:48:15.330Z,0.00
2023-02-22T03:48:46.859Z,0.00
2023-02-22T03:49:11.047Z,0.00
2023-02-22T03:49:32.503Z,0.00
2023-02-22T03:50:06.662Z,0.00
2023-02-22T03:50:39.000Z,0.00
2023-02-22T03:51:10.316Z,0.00
2023-02-22T03:51:41.042Z,0.00
2023-02-22T03:52:14.746Z,0.00
2023-02-22T03:52:46.789Z,0.00
2023-02-22T03:53:13.019Z,0.00
2023-02-22T03:53:31.995Z,0.00
2023-02-22T03:54:06.345Z,0.00
2023-02-22T03:54:38.346Z,0.00
2023-02-22T03:55:14.809Z,0.00
2023-02-22T03:55:41.159Z,0.00
2023-02-22T03:56:16.236Z,0.00
2023-02-22T03:56:46.810Z,0.00
2023-02-22T03:57:10.010Z,0.00
2023-02-22T03:57:31.887Z,0.00
2023-02-22T03:58:07.130Z,0.00
2023-02-22T03:58:38.339Z,0.00
2023-02-22T03:59:12.028Z,0.00
2023-02-22T03:59:42.887Z,0.00
2023-02-22T04:00:14.887Z,0.00
2023-02-22T04:00:47.945Z,0.00
2023-02-22T04:01:09.139Z,0.00
2023-02-22T04:01:32.454Z,0.00
2023-02-22T04:02:06.334Z,0.00
2023-02-22T04:02:38.901Z,0.00
2023-02-22T04:03:10.384Z,0.00
2023-02-22T04:03:40.936Z,0.00
2023-02-22T04:04:15.059Z,0.00
2023-02-22T04:04:47.007Z,0.00
2023-02-22T04:05:11.043Z,0.00
2023-02-22T04:05:32.748Z,0.00
2023-02-22T04:06:08.374Z,0.00
2023-02-22T04:06:38.308Z,0.00
2023-02-22T04:07:10.481Z,0.00
2023-02-22T04:07:41.584Z,0.00
2023-02-22T04:08:15.029Z,0.00
2023-02-22T04:08:46.996Z,0.00
2023-02-22T04:09:10.535Z,0.00
2023-02-22T04:09:33.132Z,0.00
2023-02-22T04:10:06.778Z,0.00
2023-02-22T04:10:38.881Z,0.00
2023-02-22T04:11:12.363Z,0.00
2023-02-22T04:11:43.966Z,0.00
2023-02-22T04:12:14.457Z,0.00
2023-02-22T04:12:46.994Z,0.00
2023-02-22T04:13:09.631Z,0.00
2023-02-22T04:13:32.380Z,0.00
2023-02-22T04:14:06.451Z,0.00
2023-02-22T04:14:38.680Z,0.00
2023-02-22T04:15:10.681Z,0.00
2023-02-22T04:15:41.039Z,0.00
2023-02-22T04:16:14.545Z,0.00
2023-02-22T04:16:46.520Z,0.00
2023-02-22T04:17:09.242Z,0.00
2023-02-22T04:17:37.244Z,0.00
2023-02-22T04:18:07.548Z,0.00
2023-02-22T04:18:38.780Z,0.00
2023-02-22T04:19:10.427Z,0.00
2023-02-22T04:19:41.164Z,0.00
2023-02-22T04:20:14.177Z,0.00
2023-02-22T04:20:48.249Z,0.00
2023-02-22T04:21:09.022Z,0.00
2023-02-22T04:21:31.388Z,0.00
2023-02-22T04:22:06.464Z,0.00
2023-02-22T04:22:38.621Z,0.00
2023-02-22T04:23:12.746Z,0.00
2023-02-22T04:23:40.957Z,0.00
2023-02-22T04:24:14.935Z,0.00
2023-02-22T04:24:46.479Z,0.00
2023-02-22T04:25:09.053Z,0.00
2023-02-22T04:25:31.720Z,0.00
2023-02-22T04:26:06.304Z,0.00
2023-02-22T04:26:38.468Z,0.00
2023-02-22T04:27:11.496Z,0.00
2023-02-22T04:27:41.436Z,0.00
2023-02-22T04:28:14.212Z,0.00
2023-02-22T04:28:46.291Z,0.00
2023-02-22T04:29:09.009Z,0.00
2023-02-22T04:29:31.664Z,0.00
2023-02-22T04:30:07.457Z,0.00
2023-02-22T04:30:38.432Z,0.00
2023-02-22T04:31:10.670Z,0.00
2023-02-22T04:31:40.901Z,0.00
2023-02-22T04:32:16.026Z,0.00
2023-02-22T04:32:46.871Z,0.00
2023-02-22T04:33:10.014Z,0.00
2023-02-22T04:33:32.444Z,0.00
2023-02-22T04:34:06.647Z,0.00
2023-02-22T04:34:41.591Z,0.00
2023-02-22T04:35:04.045Z,0.00
2023-02-22T04:35:41.023Z,0.00
2023-02-22T04:36:14.275Z,0.00
2023-02-22T04:36:46.145Z,0.00
2023-02-22T04:37:08.942Z,0.00
2023-02-22T04:37:31.349Z,0.00
2023-02-22T04:38:06.564Z,0.00
2023-02-22T04:38:38.273Z,0.00
2023-02-22T04:39:10.164Z,0.00
2023-02-22T04:39:40.811Z,0.00
2023-02-22T04:40:14.233Z,0.00
2023-02-22T04:40:46.173Z,0.00
2023-02-22T04:41:09.302Z,0.00
2023-02-22T04:41:32.548Z,0.00
2023-02-22T04:42:06.205Z,0.00
2023-02-22T04:42:38.399Z,0.00
2023-02-22T04:43:10.135Z,0.00
2023-02-22T04:43:40.803Z,0.00
2023-02-22T04:44:14.317Z,0.00
2023-02-22T04:44:46.510Z,0.00
2023-02-22T04:45:10.246Z,0.00
2023-02-22T04:45:32.500Z,0.00
2023-02-22T04:46:06.321Z,0.00
2023-02-22T04:46:38.433Z,0.00
2023-02-22T04:47:10.364Z,0.00
2023-02-22T04:47:40.749Z,0.00
2023-02-22T04:48:14.323Z,0.00
2023-02-22T04:48:46.120Z,0.00
2023-02-22T04:49:08.848Z,0.00
2023-02-22T04:49:33.036Z,0.00
2023-02-22T04:50:06.320Z,0.00
2023-02-22T04:50:38.546Z,0.00
2023-02-22T04:51:10.169Z,0.00
2023-02-22T04:51:40.865Z,0.00
2023-02-22T04:52:14.384Z,0.00
2023-02-22T04:52:46.411Z,0.00
2023-02-22T04:53:09.077Z,0.00
2023-02-22T04:53:33.833Z,0.00
2023-02-22T04:54:06.150Z,0.00
2023-02-22T04:54:38.257Z,0.00
2023-02-22T04:55:10.223Z,0.00
2023-02-22T04:55:40.757Z,0.00
2023-02-22T04:56:14.263Z,0.00
2023-02-22T04:56:46.301Z,0.00
2023-02-22T04:57:08.993Z,0.00
2023-02-22T04:57:33.905Z,0.00
2023-02-22T04:58:09.162Z,0.00
2023-02-22T04:58:38.332Z,0.00
2023-02-22T04:59:10.222Z,0.00
2023-02-22T04:59:40.756Z,0.00
2023-02-22T05:00:16.148Z,0.00
2023-02-22T05:00:48.653Z,0.00
2023-02-22T05:01:09.810Z,0.00
2023-02-22T05:01:32.054Z,0.00
2023-02-22T05:02:07.862Z,0.00
2023-02-22T05:02:38.330Z,0.00
2023-02-22T05:03:10.318Z,0.00
2023-02-22T05:03:40.806Z,0.00
2023-02-22T05:04:14.201Z,0.00
2023-02-22T05:04:47.730Z,0.00
2023-02-22T05:05:09.112Z,0.00
2023-02-22T05:05:31.328Z,0.00
2023-02-22T05:06:06.386Z,0.00
2023-02-22T05:06:38.233Z,0.00
2023-02-22T05:07:10.247Z,0.00
2023-02-22T05:07:40.724Z,0.00
2023-02-22T05:08:14.362Z,0.00
2023-02-22T05:08:46.335Z,0.00
2023-02-22T05:09:09.673Z,0.00
2023-02-22T05:09:31.939Z,0.00
2023-02-22T05:10:06.479Z,0.00
2023-02-22T05:10:38.499Z,0.00
2023-02-22T05:11:10.188Z,0.00
2023-02-22T05:11:40.753Z,0.00
2023-02-22T05:12:14.222Z,0.00
2023-02-22T05:12:46.146Z,0.00
2023-02-22T05:13:09.383Z,0.00
2023-02-22T05:13:31.941Z,0.00
2023-02-22T05:14:06.175Z,0.00
2023-02-22T05:14:38.454Z,0.00
2023-02-22T05:15:10.433Z,0.00
2023-02-22T05:15:41.287Z,0.00
2023-02-22T05:16:14.282Z,0.00
2023-02-22T05:16:46.748Z,0.00
2023-02-22T05:17:09.563Z,0.00
2023-02-22T05:17:31.870Z,0.00
2023-02-22T05:18:06.435Z,0.00
2023-02-22T05:18:38.267Z,0.00
2023-02-22T05:19:10.257Z,0.00
2023-02-22T05:19:41.080Z,0.00
2023-02-22T05:20:14.538Z,0.00
2023-02-22T05:20:46.155Z,0.00
2023-02-22T05:21:08.958Z,0.00
2023-02-22T05:21:31.198Z,0.00
2023-02-22T05:22:06.431Z,0.00
2023-02-22T05:22:41.341Z,0.00
2023-02-22T05:23:10.537Z,0.00
2023-02-22T05:23:40.870Z,0.00
2023-02-22T05:24:14.143Z,0.00
2023-02-22T05:24:46.317Z,0.00
2023-02-22T05:25:09.191Z,0.00
2023-02-22T05:25:31.553Z,0.00
2023-02-22T05:26:06.565Z,0.00
2023-02-22T05:26:41.903Z,0.00
2023-02-22T05:27:15.642Z,0.00
2023-02-22T05:27:40.845Z,0.00
2023-02-22T05:28:14.259Z,0.00
2023-02-22T05:28:48.842Z,0.00
2023-02-22T05:29:09.256Z,0.00
2023-02-22T05:29:31.709Z,0.00
2023-02-22T05:30:06.580Z,0.00
2023-02-22T05:30:38.318Z,0.00
2023-02-22T05:31:10.254Z,0.00
2023-02-22T05:31:41.403Z,0.00
2023-02-22T05:32:14.469Z,0.00
2023-02-22T05:32:47.078Z,0.00
2023-02-22T05:33:09.729Z,0.00
2023-02-22T05:33:31.754Z,0.00
2023-02-22T05:34:06.347Z,0.00
2023-02-22T05:34:38.394Z,0.00
2023-02-22T05:35:10.325Z,0.00
2023-02-22T05:35:41.986Z,0.00
2023-02-22T05:36:14.272Z,0.00
2023-02-22T05:36:46.273Z,0.00
2023-02-22T05:37:09.071Z,0.00
2023-02-22T05:37:31.566Z,0.00
2023-02-22T05:38:06.321Z,0.00
2023-02-22T05:38:38.195Z,0.00
2023-02-22T05:39:10.102Z,0.00
2023-02-22T05:39:42.669Z,0.00
2023-02-22T05:40:14.324Z,0.00
2023-02-22T05:40:46.168Z,0.00
2023-02-22T05:41:12.075Z,0.00
2023-02-22T05:41:32.087Z,0.00
2023-02-22T05:42:06.264Z,0.00
2023-02-22T05:42:38.205Z,0.00
2023-02-22T05:43:10.324Z,0.00
2023-02-22T05:43:44.364Z,0.00
2023-02-22T05:44:14.216Z,0.00
2023-02-22T05:44:46.580Z,0.00
2023-02-22T05:45:09.185Z,0.00
2023-02-22T05:45:31.419Z,0.00
2023-02-22T05:46:06.186Z,0.00
2023-02-22T05:46:38.456Z,0.00
2023-02-22T05:47:10.318Z,0.00
2023-02-22T05:47:41.344Z,0.00
2023-02-22T05:48:14.252Z,0.00
2023-02-22T05:48:46.821Z,0.00
2023-02-22T05:49:10.212Z,0.00
2023-02-22T05:49:32.480Z,0.00
2023-02-22T05:50:06.248Z,0.00
2023-02-22T05:50:38.196Z,0.00
2023-02-22T05:51:10.195Z,0.00
2023-02-22T05:51:40.788Z,0.00
2023-02-22T05:52:14.493Z,0.00
2023-02-22T05:52:46.353Z,0.00
2023-02-22T05:53:09.336Z,0.00
2023-02-22T05:53:31.654Z,0.00
2023-02-22T05:54:06.602Z,0.00
2023-02-22T05:54:38.330Z,0.00
2023-02-22T05:55:10.313Z,0.00
2023-02-22T05:55:40.786Z,0.00
2023-02-22T05:56:14.263Z,0.00
2023-02-22T05:56:46.529Z,0.00
2023-02-22T05:57:09.500Z,0.00
2023-02-22T05:57:31.879Z,0.00
2023-02-22T05:58:06.449Z,0.00
2023-02-22T05:58:38.341Z,0.00
2023-02-22T05:59:10.158Z,0.00
2023-02-22T05:59:41.018Z,0.00
2023-02-22T06:00:14.330Z,0.00
2023-02-22T06:00:47.945Z,0.00
2023-02-22T06:01:09.217Z,0.00
2023-02-22T06:01:31.894Z,0.00
2023-02-22T06:02:06.190Z,0.00
2023-02-22T06:02:38.241Z,0.00
2023-02-22T06:03:10.225Z,0.00
2023-02-22T06:03:40.813Z,0.00
2023-02-22T06:04:14.895Z,0.00
2023-02-22T06:04:47.246Z,0.00
2023-02-22T06:05:11.730Z,0.00
2023-02-22T06:05:31.540Z,0.00
2023-02-22T06:06:06.358Z,0.00
2023-02-22T06:06:38.253Z,0.00
2023-02-22T06:07:12.788Z,0.00
2023-02-22T06:07:40.816Z,0.00
2023-02-22T06:08:14.225Z,0.00
2023-02-22T06:08:48.355Z,0.00
2023-02-22T06:09:08.882Z,0.00
2023-02-22T06:09:31.326Z,0.00
2023-02-22T06:10:06.371Z,0.00
2023-02-22T06:10:38.238Z,0.00
2023-02-22T06:11:05.518Z,0.00
2023-02-22T06:11:41.322Z,0.00
2023-02-22T06:12:15.066Z,0.00
2023-02-22T06:12:48.860Z,0.00
2023-02-22T06:13:08.958Z,0.00
2023-02-22T06:13:31.377Z,0.00
2023-02-22T06:14:06.376Z,0.00
2023-02-22T06:14:39.582Z,0.00
2023-02-22T06:15:10.478Z,0.00
2023-02-22T06:15:41.808Z,0.00
2023-02-22T06:16:14.422Z,0.00
2023-02-22T06:16:46.509Z,0.00
2023-02-22T06:17:10.672Z,0.00
2023-02-22T06:17:37.000Z,0.00
2023-02-22T06:18:08.408Z,0.00
2023-02-22T06:18:38.351Z,0.00
2023-02-22T06:19:14.719Z,0.00
2023-02-22T06:19:41.083Z,0.00
2023-02-22T06:20:19.002Z,0.00
2023-02-22T06:20:40.892Z,0.00
2023-02-22T06:21:12.436Z,0.00
2023-02-22T06:21:51.314Z,0.36
2023-02-22T06:22:15.580Z,0.36
2023-02-22T06:22:35.669Z,0.85
2023-02-22T06:23:10.601Z,1.22
2023-02-22T06:23:40.870Z,0.36
2023-02-22T06:24:14.881Z,0.36
2023-02-22T06:24:46.450Z,0.85
2023-02-22T06:25:09.463Z,0.36
2023-02-22T06:25:31.926Z,0.85
2023-02-22T06:26:06.286Z,1.22
2023-02-22T06:26:38.359Z,1.71
2023-02-22T06:27:11.332Z,0.85
2023-02-22T06:27:40.992Z,2.08
2023-02-22T06:28:14.299Z,1.71
2023-02-22T06:28:46.277Z,1.22
2023-02-22T06:29:08.976Z,2.08
2023-02-22T06:29:31.228Z,2.08
2023-02-22T06:30:06.864Z,2.57
2023-02-22T06:30:38.444Z,2.57
2023-02-22T06:31:10.323Z,2.57
2023-02-22T06:31:41.066Z,2.94
2023-02-22T06:32:14.806Z,2.57
2023-02-22T06:32:46.391Z,3.43
2023-02-22T06:33:09.986Z,3.43
2023-02-22T06:33:32.135Z,3.79
2023-02-22T06:34:06.329Z,2.94
2023-02-22T06:34:38.410Z,3.79
2023-02-22T06:35:10.368Z,3.79
2023-02-22T06:35:40.934Z,4.28
2023-02-22T06:36:14.484Z,4.28
2023-02-22T06:36:46.319Z,5.99
2023-02-22T06:37:08.904Z,5.14
2023-02-22T06:37:31.324Z,5.63
2023-02-22T06:38:06.584Z,5.14
2023-02-22T06:38:38.321Z,6.48
2023-02-22T06:39:10.534Z,6.48